Time;durP1;ratioP1;P1;durP2;ratioP2;P2;SDS_P1;SDS_P2;PMS_P1;PMS_P2;Temp;Humidity;BMP_temperature;BMP_pressure;BME280_temperature;BME280_humidity;BME280_pressure;Samples;Min_cycle;Max_cycle;Signal;HPM_P1;HPM_P2
2020/12/29 00:00:48;;;;;;;15.93;14.52;;;28.00;84.50;;;;;;4941414;28;20693;-51
2020/12/29 00:03:18;;;;;;;17.02;15.65;;;28.00;84.50;;;;;;4931837;28;20697;-53
2020/12/29 00:05:50;;;;;;;16.48;14.98;;;28.00;84.60;;;;;;4942607;28;20253;-49
2020/12/29 00:08:21;;;;;;;19.00;17.33;;;28.00;84.70;;;;;;4947192;29;20622;-49
2020/12/29 00:10:51;;;;;;;17.08;15.48;;;28.00;84.80;;;;;;4946160;28;20241;-49
2020/12/29 00:13:21;;;;;;;16.48;15.07;;;28.00;84.90;;;;;;4945932;28;20292;-49
2020/12/29 00:15:52;;;;;;;16.95;15.55;;;28.00;85.00;;;;;;4951214;28;20227;-51
2020/12/29 00:18:22;;;;;;;17.35;15.95;;;28.10;85.10;;;;;;4995580;28;20746;-49
2020/12/29 00:20:54;;;;;;;17.23;15.75;;;28.00;85.10;;;;;;4959380;28;20233;-49
2020/12/29 00:23:25;;;;;;;16.67;15.20;;;28.10;85.20;;;;;;4957343;28;20597;-51
2020/12/29 00:25:55;;;;;;;16.05;14.68;;;28.10;85.40;;;;;;4964922;28;20232;-49
2020/12/29 00:28:26;;;;;;;14.68;13.48;;;28.10;85.40;;;;;;4995542;28;20248;-51
2020/12/29 00:30:56;;;;;;;17.52;16.10;;;28.10;85.50;;;;;;5014340;28;20237;-50
2020/12/29 00:33:27;;;;;;;17.25;15.80;;;28.10;85.50;;;;;;4956420;28;20696;-49
2020/12/29 00:35:59;;;;;;;17.77;16.08;;;28.20;85.60;;;;;;4957334;28;20229;-51
2020/12/29 00:38:29;;;;;;;16.20;14.85;;;28.20;85.70;;;;;;4953686;28;20283;-50
2020/12/29 00:40:59;;;;;;;17.42;15.88;;;28.20;85.70;;;;;;4956466;28;20767;-48
2020/12/29 00:43:29;;;;;;;15.00;13.73;;;28.30;85.90;;;;;;4962147;28;20236;-51
2020/12/29 00:46:00;;;;;;;15.15;13.95;;;28.30;86.00;;;;;;4965194;28;20253;-48
2020/12/29 00:48:31;;;;;;;16.65;15.25;;;28.30;86.10;;;;;;4967769;28;20232;-52
2020/12/29 00:51:05;;;;;;;16.58;15.07;;;28.40;86.20;;;;;;4961843;28;20602;-50
2020/12/29 00:53:37;;;;;;;16.05;14.75;;;28.40;86.50;;;;;;4960142;28;20239;-53
2020/12/29 00:56:08;;;;;;;17.02;15.52;;;28.40;86.50;;;;;;4950097;28;20239;-48
2020/12/29 00:58:39;;;;;;;19.65;18.15;;;28.50;86.70;;;;;;4966552;28;20227;-50
2020/12/29 01:01:09;;;;;;;16.27;14.90;;;28.50;86.90;;;;;;4961142;28;20236;-48
2020/12/29 01:03:40;;;;;;;17.27;15.88;;;28.60;87.30;;;;;;4960839;28;20328;-50
2020/12/29 01:06:12;;;;;;;17.92;16.55;;;28.60;87.50;;;;;;4954527;28;20243;-48
2020/12/29 01:08:43;;;;;;;19.30;17.63;;;28.60;87.50;;;;;;4958630;28;20615;-50
2020/12/29 01:11:32;;;;;;;17.05;15.57;;;28.70;87.70;;;;;;4959417;28;20232;-52
2020/12/29 01:14:03;;;;;;;16.50;14.77;;;28.80;87.90;;;;;;4964345;28;21857;-50
2020/12/29 01:16:33;;;;;;;15.85;14.38;;;28.90;88.80;;;;;;4961393;28;20666;-51
2020/12/29 01:19:04;;;;;;;15.02;13.80;;;29.00;88.00;;;;;;4961470;28;20605;-50
2020/12/29 01:21:36;;;;;;;14.85;13.55;;;29.00;88.00;;;;;;4957330;28;20250;-49
2020/12/29 01:24:07;;;;;;;17.17;15.57;;;29.10;88.00;;;;;;4959385;28;20240;-49
2020/12/29 01:26:37;;;;;;;17.20;15.57;;;29.20;88.20;;;;;;4966368;28;20293;-49
2020/12/29 01:29:07;;;;;;;17.33;15.63;;;29.30;88.20;;;;;;4964304;28;20700;-48
2020/12/29 01:31:38;;;;;;;18.15;16.65;;;29.30;88.10;;;;;;4953587;28;20245;-50
2020/12/29 01:34:09;;;;;;;17.25;15.68;;;29.40;88.10;;;;;;4953016;28;20652;-49
2020/12/29 01:36:40;;;;;;;16.73;15.25;;;29.50;88.20;;;;;;4962396;28;20240;-48
2020/12/29 01:39:11;;;;;;;14.00;12.77;;;29.60;88.10;;;;;;4953714;28;20279;-49
2020/12/29 01:41:41;;;;;;;10.98;10.18;;;29.60;87.50;;;;;;4956514;28;20260;-50
2020/12/29 01:44:16;;;;;;;11.25;10.32;;;29.70;87.20;;;;;;4967589;28;20674;-49
2020/12/29 01:46:46;;;;;;;10.77;9.98;;;29.80;86.70;;;;;;4958198;28;20267;-50
2020/12/29 01:49:17;;;;;;;13.45;12.40;;;29.90;86.00;;;;;;4964555;28;20287;-50
2020/12/29 01:51:49;;;;;;;12.85;11.75;;;29.90;85.10;;;;;;4959809;28;20241;-50
2020/12/29 01:54:21;;;;;;;13.25;12.15;;;30.00;84.90;;;;;;4959587;28;20228;-49
2020/12/29 01:56:52;;;;;;;14.43;13.23;;;30.10;84.70;;;;;;4967437;28;20244;-48
2020/12/29 01:59:22;;;;;;;13.35;12.23;;;30.10;84.50;;;;;;4963123;28;20236;-48
2020/12/29 02:01:52;;;;;;;16.15;12.98;;;30.20;84.40;;;;;;4954452;28;20332;-50
2020/12/29 02:04:23;;;;;;;12.43;11.43;;;30.30;83.70;;;;;;4954987;28;20232;-48
2020/12/29 02:06:55;;;;;;;11.93;10.82;;;30.30;83.50;;;;;;4952352;28;20699;-49
2020/12/29 02:09:25;;;;;;;11.77;10.63;;;30.40;83.40;;;;;;4957018;28;20290;-50
2020/12/29 02:11:56;;;;;;;10.48;9.68;;;30.50;83.20;;;;;;4964071;28;20232;-51
2020/12/29 02:14:26;;;;;;;10.48;9.60;;;30.50;82.80;;;;;;4954758;28;20279;-50
2020/12/29 02:16:57;;;;;;;10.45;9.65;;;30.60;82.10;;;;;;4953829;28;20322;-48
2020/12/29 02:19:28;;;;;;;10.35;9.35;;;30.70;81.50;;;;;;4955258;28;20315;-54
2020/12/29 02:21:59;;;;;;;11.90;10.90;;;30.80;81.10;;;;;;4957478;28;20561;-54
2020/12/29 02:24:31;;;;;;;12.38;11.38;;;30.80;80.80;;;;;;4950416;28;20604;-49
2020/12/29 02:27:04;;;;;;;11.88;10.88;;;30.90;80.60;;;;;;4951621;28;20249;-52
2020/12/29 02:29:35;;;;;;;10.57;9.48;;;31.00;79.70;;;;;;4956528;28;20602;-50
2020/12/29 02:32:06;;;;;;;12.93;11.65;;;31.00;79.10;;;;;;4962381;28;20320;-50
2020/12/29 02:34:38;;;;;;;11.23;10.13;;;31.10;78.40;;;;;;4968050;28;20247;-49
2020/12/29 02:37:08;;;;;;;10.43;9.43;;;31.20;77.90;;;;;;4965891;28;20312;-51
2020/12/29 02:39:42;;;;;;;9.35;8.45;;;31.20;77.80;;;;;;4968358;28;20247;-51
2020/12/29 02:42:12;;;;;;;10.27;9.38;;;31.30;77.00;;;;;;4960333;28;20327;-49
2020/12/29 02:44:43;;;;;;;9.80;8.95;;;31.30;77.00;;;;;;4957053;28;20245;-49
2020/12/29 02:47:14;;;;;;;9.20;8.05;;;31.40;76.70;;;;;;4959771;28;20232;-49
2020/12/29 02:49:45;;;;;;;8.48;7.57;;;31.50;76.40;;;;;;4962316;28;20228;-51
2020/12/29 02:52:15;;;;;;;8.07;7.28;;;31.50;76.10;;;;;;4961644;28;20237;-52
2020/12/29 02:54:47;;;;;;;8.50;7.20;;;31.60;76.10;;;;;;4957602;28;20224;-51
2020/12/29 02:57:18;;;;;;;6.75;6.05;;;31.70;75.60;;;;;;4964371;28;20252;-49
2020/12/29 02:59:49;;;;;;;7.68;7.03;;;31.70;74.90;;;;;;4955342;28;20233;-49
2020/12/29 03:02:20;;;;;;;6.90;6.30;;;31.80;74.70;;;;;;4960660;28;20247;-52
2020/12/29 03:04:50;;;;;;;8.63;7.63;;;31.90;74.80;;;;;;4953994;28;20290;-50
2020/12/29 03:07:21;;;;;;;8.30;7.60;;;31.90;74.60;;;;;;4959185;28;20240;-50
2020/12/29 03:09:52;;;;;;;8.45;7.68;;;32.00;74.10;;;;;;4961422;28;20256;-49
2020/12/29 03:12:23;;;;;;;7.78;6.90;;;32.10;74.20;;;;;;4959843;28;20233;-48
2020/12/29 03:14:53;;;;;;;7.25;6.65;;;32.10;73.70;;;;;;4959730;28;20229;-50
2020/12/29 03:17:24;;;;;;;7.78;6.97;;;32.20;73.30;;;;;;4952019;28;20649;-50
2020/12/29 03:19:54;;;;;;;6.38;5.90;;;32.20;72.30;;;;;;4953537;28;20242;-50
2020/12/29 03:22:24;;;;;;;7.03;6.43;;;32.30;72.90;;;;;;4954879;28;20241;-51
2020/12/29 03:24:56;;;;;;;8.18;7.40;;;32.40;72.70;;;;;;4959919;28;20252;-51
2020/12/29 03:27:27;;;;;;;7.90;7.10;;;32.40;71.60;;;;;;4966380;28;20290;-49
2020/12/29 03:29:57;;;;;;;7.63;7.00;;;32.50;71.70;;;;;;4962315;28;20250;-53
2020/12/29 03:32:28;;;;;;;8.82;7.97;;;32.50;70.80;;;;;;4969898;28;20613;-50
2020/12/29 03:34:58;;;;;;;9.48;8.50;;;32.60;69.80;;;;;;4973922;28;20221;-49
2020/12/29 03:37:28;;;;;;;8.85;8.05;;;32.60;69.50;;;;;;4967135;28;20956;-48
2020/12/29 03:40:00;;;;;;;8.27;7.47;;;32.70;68.80;;;;;;4960091;28;20242;-51
2020/12/29 03:42:30;;;;;;;9.60;8.60;;;32.70;69.30;;;;;;4951892;28;20237;-54
2020/12/29 03:45:00;;;;;;;9.65;8.75;;;32.80;69.10;;;;;;4951135;28;20233;-49
2020/12/29 03:47:32;;;;;;;9.55;8.60;;;32.80;67.90;;;;;;4959651;28;20722;-60
2020/12/29 03:50:03;;;;;;;10.18;9.18;;;32.90;68.50;;;;;;4955104;28;20861;-50
2020/12/29 03:52:34;;;;;;;9.50;8.70;;;33.00;68.10;;;;;;4963857;28;20236;-51
2020/12/29 03:55:05;;;;;;;10.80;9.75;;;33.10;68.30;;;;;;4955090;28;20286;-51
2020/12/29 03:57:38;;;;;;;10.30;9.40;;;33.20;67.00;;;;;;4955968;28;20315;-53
2020/12/29 04:00:08;;;;;;;10.98;9.95;;;33.30;67.40;;;;;;4965798;28;20233;-49
2020/12/29 04:02:42;;;;;;;10.43;9.43;;;33.30;66.40;;;;;;4961266;28;20247;-48
2020/12/29 04:05:12;;;;;;;11.30;10.30;;;33.40;66.50;;;;;;4961771;28;20684;-49
2020/12/29 04:07:43;;;;;;;10.23;9.32;;;33.40;65.40;;;;;;4959402;28;20671;-49
2020/12/29 04:10:15;;;;;;;10.15;9.20;;;33.40;65.60;;;;;;4965998;28;20224;-50
2020/12/29 04:12:45;;;;;;;8.65;7.85;;;33.50;65.60;;;;;;4967707;28;20232;-50
2020/12/29 04:15:16;;;;;;;10.15;9.15;;;33.60;66.00;;;;;;4957187;28;20286;-49
2020/12/29 04:17:46;;;;;;;9.63;8.73;;;33.60;65.50;;;;;;4950548;28;20249;-52
2020/12/29 04:20:20;;;;;;;9.75;8.88;;;33.70;64.80;;;;;;4969044;28;20255;-50
2020/12/29 04:22:51;;;;;;;11.07;10.02;;;33.70;64.90;;;;;;4968938;28;20245;-50
2020/12/29 04:25:22;;;;;;;10.73;9.65;;;33.70;63.80;;;;;;4968349;28;20241;-48
2020/12/29 04:27:53;;;;;;;9.25;8.35;;;33.80;64.00;;;;;;4969490;28;20356;-51
2020/12/29 04:30:24;;;;;;;9.68;8.77;;;33.80;64.70;;;;;;4969558;28;20235;-51
2020/12/29 04:32:54;;;;;;;8.60;7.90;;;33.80;64.20;;;;;;4967796;28;20232;-50
2020/12/29 04:35:24;;;;;;;9.77;8.88;;;33.90;64.60;;;;;;4969128;28;20233;-49
2020/12/29 04:37:55;;;;;;;10.20;9.20;;;33.90;64.20;;;;;;4969108;28;20236;-48
2020/12/29 04:40:26;;;;;;;9.52;8.57;;;34.00;63.70;;;;;;4969275;28;20240;-48
2020/12/29 04:42:57;;;;;;;11.20;9.13;;;34.00;63.70;;;;;;4968554;28;20241;-50
2020/12/29 04:45:29;;;;;;;10.23;9.27;;;34.10;62.80;;;;;;4968983;28;20225;-49
2020/12/29 04:48:00;;;;;;;10.20;9.40;;;34.10;62.80;;;;;;4968269;28;20233;-51
2020/12/29 04:50:31;;;;;;;8.63;7.82;;;34.20;62.60;;;;;;4967239;28;20228;-50
2020/12/29 04:53:01;;;;;;;9.57;8.65;;;34.20;62.90;;;;;;4969060;28;20243;-49
2020/12/29 04:55:33;;;;;;;8.98;8.05;;;34.30;62.30;;;;;;4947179;28;20236;-49
2020/12/29 04:58:05;;;;;;;9.40;8.55;;;34.40;63.30;;;;;;5026052;28;20230;-53
2020/12/29 05:00:36;;;;;;;9.02;8.32;;;34.50;62.30;;;;;;5013695;28;20453;-49
2020/12/29 05:03:06;;;;;;;7.70;7.10;;;34.60;61.80;;;;;;5011449;28;20723;-51
2020/12/29 05:05:37;;;;;;;10.77;9.63;;;34.70;62.20;;;;;;5027507;28;20277;-55
2020/12/29 05:08:07;;;;;;;8.60;7.85;;;34.80;59.70;;;;;;5014151;28;20227;-49
2020/12/29 05:10:47;;;;;;;8.93;8.13;;;34.80;60.70;;;;;;5025347;28;20785;-52
2020/12/29 05:13:17;;;;;;;8.88;7.97;;;34.90;60.40;;;;;;5007244;28;20231;-50
2020/12/29 05:15:48;;;;;;;9.10;8.23;;;34.90;61.10;;;;;;5008497;28;20243;-50
2020/12/29 05:18:18;;;;;;;10.93;9.88;;;35.00;59.80;;;;;;4967914;28;20236;-49
2020/12/29 05:20:49;;;;;;;9.55;8.75;;;35.00;60.00;;;;;;4986891;28;20240;-48
2020/12/29 05:23:20;;;;;;;10.07;9.15;;;35.00;60.50;;;;;;5007421;28;20310;-49
2020/12/29 05:25:52;;;;;;;12.38;8.95;;;35.00;60.30;;;;;;5012073;28;20258;-48
2020/12/29 05:28:22;;;;;;;9.80;8.93;;;35.00;60.20;;;;;;5011062;28;20235;-49
2020/12/29 05:30:54;;;;;;;9.90;9.00;;;35.00;60.00;;;;;;4951144;28;20615;-50
2020/12/29 05:33:28;;;;;;;8.75;7.90;;;35.10;59.10;;;;;;4911496;28;20320;-51
2020/12/29 05:35:59;;;;;;;10.35;9.35;;;35.00;59.10;;;;;;4910824;28;20234;-49
2020/12/29 05:38:29;;;;;;;11.27;9.93;;;35.00;59.00;;;;;;4911774;28;20231;-49
2020/12/29 05:41:01;;;;;;;10.75;9.65;;;35.00;58.40;;;;;;4912683;28;20702;-51
2020/12/29 05:43:32;;;;;;;10.32;9.45;;;35.00;59.00;;;;;;4911211;28;20370;-50
2020/12/29 05:46:07;;;;;;;9.20;8.13;;;34.90;58.70;;;;;;4893699;29;20239;-50
2020/12/29 05:48:38;;;;;;;9.65;8.60;;;34.90;58.80;;;;;;4909163;28;20306;-49
2020/12/29 05:51:14;;;;;;;10.35;9.15;;;34.90;58.90;;;;;;4949723;29;20229;-49
2020/12/29 05:53:45;;;;;;;8.13;7.43;;;34.80;58.40;;;;;;4951567;29;20241;-49
2020/12/29 05:56:17;;;;;;;8.25;7.45;;;34.80;59.50;;;;;;4896301;29;20675;-48
2020/12/29 05:58:49;;;;;;;7.90;7.13;;;34.90;59.40;;;;;;4894515;29;20239;-51
2020/12/29 06:01:19;;;;;;;7.85;7.25;;;34.90;59.50;;;;;;4900888;29;20273;-51
2020/12/29 06:03:50;;;;;;;8.65;7.85;;;35.00;59.50;;;;;;4912676;29;20250;-49
2020/12/29 06:06:20;;;;;;;7.13;6.50;;;35.00;59.20;;;;;;4896360;29;20290;-50
2020/12/29 06:08:50;;;;;;;7.82;6.85;;;35.00;59.10;;;;;;4907045;29;20267;-49
2020/12/29 06:11:26;;;;;;;7.80;7.13;;;35.10;59.20;;;;;;4914312;29;20238;-49
2020/12/29 06:13:56;;;;;;;7.35;6.65;;;35.10;59.10;;;;;;4914215;29;20266;-50
2020/12/29 06:16:27;;;;;;;8.23;7.43;;;35.10;59.50;;;;;;4875511;29;20240;-51
2020/12/29 06:18:58;;;;;;;7.65;6.97;;;35.20;59.30;;;;;;4794987;29;20247;-50
2020/12/29 06:21:28;;;;;;;8.90;8.10;;;35.20;59.30;;;;;;4758083;30;20241;-49
2020/12/29 06:23:59;;;;;;;7.88;7.18;;;35.20;59.10;;;;;;4764298;29;20291;-50
2020/12/29 06:26:35;;;;;;;8.30;7.50;;;35.30;59.10;;;;;;4880307;29;20307;-51
2020/12/29 06:29:05;;;;;;;7.95;7.15;;;35.30;58.90;;;;;;4893809;29;20239;-54
2020/12/29 06:31:36;;;;;;;8.60;7.78;;;35.20;59.10;;;;;;4890527;29;20244;-51
2020/12/29 06:34:06;;;;;;;8.43;7.72;;;35.30;59.40;;;;;;4838829;29;21249;-51
2020/12/29 06:36:37;;;;;;;9.40;6.93;;;35.20;59.50;;;;;;4834762;29;20245;-49
2020/12/29 06:39:08;;;;;;;6.88;6.28;;;35.30;59.60;;;;;;4839121;29;20269;-52
2020/12/29 06:41:40;;;;;;;9.40;8.38;;;35.30;59.80;;;;;;4837434;29;20637;-52
2020/12/29 06:44:13;;;;;;;8.85;8.02;;;35.30;59.10;;;;;;4832673;29;20238;-52
2020/12/29 06:46:57;;;;;;;8.45;7.80;;;35.30;59.50;;;;;;4837112;29;20656;-49
2020/12/29 06:49:28;;;;;;;8.57;7.70;;;35.30;59.40;;;;;;4908747;29;20230;-50
2020/12/29 06:52:18;;;;;;;7.80;7.20;;;35.30;59.40;;;;;;4902232;29;20242;-51
2020/12/29 06:54:49;;;;;;;7.25;6.65;;;35.30;59.00;;;;;;4903326;29;20669;-55
2020/12/29 06:57:23;;;;;;;9.25;8.27;;;35.30;59.60;;;;;;4939207;28;20692;-51
2020/12/29 06:59:55;;;;;;;9.10;8.40;;;35.30;59.50;;;;;;4970916;28;20299;-49
2020/12/29 07:02:36;;;;;;;9.18;8.30;;;35.30;59.50;;;;;;4971137;28;20259;-51
2020/12/29 07:05:14;;;;;;;9.32;8.48;;;35.20;59.70;;;;;;4987010;28;20234;-50
2020/12/29 07:07:48;;;;;;;8.25;7.55;;;35.20;60.40;;;;;;5009102;28;20349;-50
2020/12/29 07:10:19;;;;;;;8.25;7.47;;;35.10;60.20;;;;;;5009501;28;20226;-49
2020/12/29 07:12:51;;;;;;;8.05;7.35;;;35.10;60.10;;;;;;5004577;28;20231;-49
2020/12/29 07:15:22;;;;;;;8.30;7.60;;;35.20;60.50;;;;;;5009068;28;20742;-51
2020/12/29 07:17:56;;;;;;;9.20;8.38;;;35.20;60.60;;;;;;5016364;28;20246;-49
2020/12/29 07:20:27;;;;;;;7.93;7.13;;;35.20;60.70;;;;;;5029236;28;20234;-50
2020/12/29 07:23:05;;;;;;;8.57;7.78;;;35.30;60.40;;;;;;5000415;28;20708;-50
2020/12/29 07:25:36;;;;;;;8.20;7.50;;;35.30;60.10;;;;;;4970651;28;20232;-51
2020/12/29 07:28:07;;;;;;;8.25;7.22;;;35.30;60.20;;;;;;4969517;28;20688;-51
2020/12/29 07:30:38;;;;;;;10.68;9.68;;;35.40;60.10;;;;;;4970165;28;20240;-50
2020/12/29 07:33:09;;;;;;;10.43;9.43;;;35.40;59.60;;;;;;4969970;28;20240;-54
2020/12/29 07:35:39;;;;;;;10.23;8.70;;;35.30;59.70;;;;;;4969893;28;20335;-49
2020/12/29 07:38:13;;;;;;;9.13;8.30;;;35.40;60.30;;;;;;4970323;28;20766;-49
2020/12/29 07:40:44;;;;;;;9.40;8.60;;;35.30;60.50;;;;;;4969097;28;20247;-51
2020/12/29 07:43:16;;;;;;;9.93;8.95;;;35.30;60.50;;;;;;4970796;28;20247;-52
2020/12/29 07:45:46;;;;;;;10.40;9.50;;;35.40;60.90;;;;;;5046978;28;20229;-50
2020/12/29 07:48:17;;;;;;;10.43;9.35;;;35.30;60.90;;;;;;5029868;28;20242;-53
2020/12/29 07:50:47;;;;;;;9.93;9.15;;;35.30;61.40;;;;;;4959162;28;20229;-49
2020/12/29 07:53:18;;;;;;;10.93;9.93;;;35.30;59.90;;;;;;4967105;28;20321;-50
2020/12/29 07:55:48;;;;;;;12.63;7.88;;;35.30;59.90;;;;;;4965427;28;20236;-53
2020/12/29 07:58:20;;;;;;;10.88;9.85;;;35.20;60.10;;;;;;4963139;28;20661;-50
2020/12/29 08:00:52;;;;;;;8.95;8.15;;;35.20;60.20;;;;;;4962040;28;20223;-49
2020/12/29 08:03:22;;;;;;;8.13;7.38;;;35.20;60.20;;;;;;4968161;28;20688;-50
2020/12/29 08:05:53;;;;;;;8.02;7.07;;;35.20;60.70;;;;;;4968132;28;20228;-50
2020/12/29 08:08:24;;;;;;;9.07;8.18;;;35.20;60.70;;;;;;4968892;28;20255;-50
2020/12/29 08:10:54;;;;;;;8.43;7.63;;;35.20;60.30;;;;;;4968836;28;20286;-50
2020/12/29 08:13:26;;;;;;;7.53;6.82;;;35.10;61.10;;;;;;4968805;28;20239;-49
2020/12/29 08:15:56;;;;;;;7.97;7.20;;;35.10;62.10;;;;;;4969475;28;20228;-49
2020/12/29 08:18:27;;;;;;;7.00;6.30;;;35.10;60.80;;;;;;4968408;28;20240;-49
2020/12/29 08:20:58;;;;;;;5.75;5.20;;;35.10;62.90;;;;;;4968170;28;20322;-52
2020/12/29 08:23:29;;;;;;;6.13;5.60;;;35.00;63.80;;;;;;4965561;28;20282;-49
2020/12/29 08:26:00;;;;;;;6.32;5.82;;;35.00;64.30;;;;;;4968589;28;20240;-49
2020/12/29 08:28:33;;;;;;;6.93;6.22;;;35.00;64.60;;;;;;4969210;28;20324;-50
2020/12/29 08:31:03;;;;;;;7.45;6.75;;;34.90;65.00;;;;;;4968282;28;20319;-50
2020/12/29 08:33:34;;;;;;;7.03;6.43;;;34.90;63.40;;;;;;4967236;28;20697;-53
2020/12/29 08:36:04;;;;;;;7.70;6.45;;;34.80;64.40;;;;;;4966518;28;20710;-50
2020/12/29 08:38:49;;;;;;;7.25;6.55;;;34.80;65.00;;;;;;4958473;28;20236;-50
2020/12/29 08:41:23;;;;;;;7.60;7.00;;;34.80;65.60;;;;;;4966227;28;20243;-51
2020/12/29 08:43:55;;;;;;;7.97;7.25;;;34.80;65.50;;;;;;4926072;29;20356;-50
2020/12/29 08:46:26;;;;;;;7.85;6.22;;;34.70;65.50;;;;;;4922811;29;20229;-50
2020/12/29 08:48:56;;;;;;;7.38;6.75;;;34.70;65.70;;;;;;4919739;28;20229;-49
2020/12/29 08:51:29;;;;;;;7.75;6.45;;;34.60;65.60;;;;;;4921066;28;20314;-52
2020/12/29 08:54:08;;;;;;;9.07;8.23;;;34.60;65.70;;;;;;4925732;29;20317;-50
2020/12/29 08:56:39;;;;;;;9.00;7.78;;;34.60;65.90;;;;;;4923911;29;20248;-49
2020/12/29 08:59:14;;;;;;;8.77;7.88;;;34.60;65.90;;;;;;4924839;28;20763;-54
2020/12/29 09:01:45;;;;;;;8.63;7.72;;;34.50;65.90;;;;;;4923228;28;20233;-51
2020/12/29 09:04:28;;;;;;;8.82;7.88;;;34.40;65.80;;;;;;4921533;28;20237;-50
2020/12/29 09:06:59;;;;;;;10.25;9.05;;;34.50;66.20;;;;;;4938495;28;22091;-52
2020/12/29 09:09:29;;;;;;;7.53;6.75;;;34.40;66.30;;;;;;4963152;28;20227;-51
2020/12/29 09:12:13;;;;;;;6.47;5.88;;;34.30;66.30;;;;;;4968896;28;20633;-51
2020/12/29 09:14:55;;;;;;;9.75;7.75;;;34.40;66.50;;;;;;4962918;28;20290;-50
2020/12/29 09:17:25;;;;;;;8.52;7.72;;;34.40;66.60;;;;;;4989883;28;20340;-50
2020/12/29 09:20:09;;;;;;;8.93;8.00;;;34.40;66.40;;;;;;5050163;28;20236;-49
2020/12/29 09:22:55;;;;;;;8.43;7.32;;;34.40;66.10;;;;;;4972797;28;20314;-50
2020/12/29 09:25:26;;;;;;;8.85;8.00;;;34.40;65.70;;;;;;4968423;28;20224;-50
2020/12/29 09:28:15;;;;;;;9.88;8.88;;;34.40;65.80;;;;;;4986329;28;20221;-50
2020/12/29 09:30:48;;;;;;;9.43;8.40;;;34.40;65.10;;;;;;4968717;28;20229;-52
2020/12/29 09:33:22;;;;;;;9.77;8.30;;;34.40;65.60;;;;;;4969051;28;20236;-51
2020/12/29 09:35:52;;;;;;;7.13;6.53;;;34.40;66.10;;;;;;4967067;28;20286;-49
2020/12/29 09:38:23;;;;;;;8.68;7.88;;;34.50;66.50;;;;;;4966833;28;20307;-50
2020/12/29 09:41:01;;;;;;;8.77;7.88;;;34.50;66.20;;;;;;4966963;28;20232;-53
2020/12/29 09:43:32;;;;;;;11.07;8.77;;;34.50;66.10;;;;;;4967780;28;20240;-52
2020/12/29 09:46:04;;;;;;;8.77;7.97;;;34.50;66.20;;;;;;4966570;28;20624;-50
2020/12/29 09:48:35;;;;;;;9.05;8.20;;;34.60;66.50;;;;;;4966532;28;20290;-54
2020/12/29 09:51:06;;;;;;;8.63;7.28;;;34.60;66.40;;;;;;4965558;28;20224;-54
2020/12/29 09:53:36;;;;;;;7.63;6.88;;;34.70;66.40;;;;;;4967167;28;20703;-49
2020/12/29 09:56:07;;;;;;;7.93;7.07;;;34.80;66.20;;;;;;4967060;28;20239;-50
2020/12/29 09:58:38;;;;;;;6.95;6.32;;;34.80;66.10;;;;;;4966653;28;20240;-50
2020/12/29 10:01:09;;;;;;;8.15;7.45;;;34.90;65.90;;;;;;4966073;28;20224;-50
2020/12/29 10:03:40;;;;;;;8.18;7.38;;;34.90;66.20;;;;;;4969415;28;20240;-53
2020/12/29 10:06:11;;;;;;;8.85;7.95;;;34.90;65.10;;;;;;4969854;28;20246;-53
2020/12/29 10:08:41;;;;;;;8.38;7.57;;;34.80;65.10;;;;;;4972129;28;20275;-51
2020/12/29 10:11:15;;;;;;;7.20;6.60;;;34.80;65.40;;;;;;4970547;28;20782;-52
2020/12/29 10:13:46;;;;;;;7.30;6.10;;;34.70;66.70;;;;;;4969553;28;20235;-50
2020/12/29 10:16:18;;;;;;;8.38;7.57;;;34.70;66.20;;;;;;4969763;28;20232;-50
2020/12/29 10:18:48;;;;;;;9.80;8.80;;;34.70;66.50;;;;;;4961302;28;20711;-51
2020/12/29 10:21:20;;;;;;;11.30;9.05;;;34.80;66.70;;;;;;4962621;28;20224;-49
2020/12/29 10:23:50;;;;;;;7.55;6.85;;;34.80;66.20;;;;;;4966567;28;20285;-49
2020/12/29 10:26:21;;;;;;;6.78;5.97;;;34.80;66.10;;;;;;4966520;28;20239;-50
2020/12/29 10:28:52;;;;;;;7.45;6.75;;;34.80;66.10;;;;;;4970734;28;20239;-55
2020/12/29 10:31:27;;;;;;;8.40;7.47;;;34.90;66.10;;;;;;4969889;28;20241;-49
2020/12/29 10:33:57;;;;;;;9.77;8.77;;;34.90;66.10;;;;;;4969939;28;20228;-51
2020/12/29 10:36:32;;;;;;;10.23;9.25;;;34.80;66.10;;;;;;4969104;28;20235;-49
2020/12/29 10:39:03;;;;;;;9.98;8.35;;;34.60;66.10;;;;;;4966226;28;20703;-50
2020/12/29 10:41:33;;;;;;;8.93;8.00;;;34.60;66.30;;;;;;4967629;28;20635;-49
2020/12/29 10:44:04;;;;;;;8.32;7.43;;;34.40;66.50;;;;;;4981644;28;20233;-56
2020/12/29 10:46:38;;;;;;;8.20;7.40;;;34.30;66.80;;;;;;4956049;28;20324;-51
2020/12/29 10:49:08;;;;;;;7.90;7.10;;;34.10;67.20;;;;;;4970320;28;20706;-51
2020/12/29 10:51:38;;;;;;;7.63;6.85;;;33.90;67.60;;;;;;4961525;28;20234;-50
2020/12/29 10:54:09;;;;;;;8.73;7.85;;;33.80;67.90;;;;;;4966025;28;20599;-49
2020/12/29 10:56:40;;;;;;;9.60;7.72;;;33.70;68.60;;;;;;4968555;28;20239;-52
2020/12/29 10:59:11;;;;;;;9.07;6.28;;;33.50;68.90;;;;;;4971057;28;20412;-51
2020/12/29 11:01:43;;;;;;;6.07;5.57;;;33.40;69.10;;;;;;4968575;28;20688;-50
2020/12/29 11:04:15;;;;;;;15.35;13.77;;;33.30;69.30;;;;;;4969393;28;20290;-51
2020/12/29 11:06:45;;;;;;;11.63;10.43;;;33.20;69.60;;;;;;4968047;28;20243;-51
2020/12/29 11:09:15;;;;;;;7.70;7.00;;;33.20;69.70;;;;;;4964311;28;20252;-50
2020/12/29 11:11:46;;;;;;;6.95;6.35;;;33.10;69.80;;;;;;4964075;28;20235;-52
2020/12/29 11:14:17;;;;;;;9.32;8.43;;;33.10;70.00;;;;;;4969937;28;20225;-51
2020/12/29 11:16:51;;;;;;;9.63;8.70;;;33.00;70.20;;;;;;4969279;28;20224;-51
2020/12/29 11:19:22;;;;;;;9.25;8.45;;;32.90;70.60;;;;;;4966098;28;20679;-51
2020/12/29 11:21:53;;;;;;;9.77;7.85;;;32.90;70.60;;;;;;4969462;28;20281;-50
2020/12/29 11:24:23;;;;;;;8.68;7.88;;;32.80;70.50;;;;;;4968958;28;20684;-52
2020/12/29 11:26:54;;;;;;;8.18;7.30;;;32.80;70.70;;;;;;4967765;28;20229;-50
2020/12/29 11:29:24;;;;;;;9.05;7.30;;;32.70;70.80;;;;;;4967680;28;20274;-49
2020/12/29 11:31:56;;;;;;;7.22;6.53;;;32.60;70.90;;;;;;4977590;28;20372;-50
2020/12/29 11:34:26;;;;;;;8.38;7.38;;;32.70;71.10;;;;;;4968401;28;20759;-49
2020/12/29 11:36:57;;;;;;;8.55;7.75;;;32.70;71.20;;;;;;4967342;28;20271;-49
2020/12/29 11:39:27;;;;;;;9.02;8.13;;;32.60;71.30;;;;;;4966731;28;20228;-49
2020/12/29 11:41:58;;;;;;;8.05;7.25;;;32.60;71.50;;;;;;4974596;28;20707;-53
2020/12/29 11:44:28;;;;;;;8.75;7.85;;;32.50;71.50;;;;;;4958903;28;20569;-52
2020/12/29 11:47:00;;;;;;;8.27;7.47;;;32.50;71.60;;;;;;4968332;28;20236;-49
2020/12/29 11:49:31;;;;;;;7.97;7.30;;;32.50;71.80;;;;;;4968614;28;20256;-49
2020/12/29 11:52:02;;;;;;;8.77;7.97;;;32.50;71.80;;;;;;4968584;28;20232;-49
2020/12/29 11:54:32;;;;;;;7.45;6.72;;;32.50;71.90;;;;;;4969564;28;20240;-50
2020/12/29 11:57:03;;;;;;;6.78;6.18;;;32.40;72.00;;;;;;4967576;28;20258;-54
2020/12/29 11:59:33;;;;;;;8.65;7.63;;;32.40;72.10;;;;;;4957369;28;20323;-52
2020/12/29 12:02:05;;;;;;;8.13;7.40;;;32.40;72.30;;;;;;4963262;28;20275;-53
2020/12/29 12:04:35;;;;;;;9.93;8.93;;;32.40;72.30;;;;;;4965233;28;20240;-51
2020/12/29 12:07:10;;;;;;;8.63;7.75;;;32.40;72.40;;;;;;4963776;28;20311;-50
2020/12/29 12:09:41;;;;;;;7.75;7.03;;;32.40;72.50;;;;;;4956007;28;20297;-49
2020/12/29 12:12:11;;;;;;;8.68;7.82;;;32.30;72.50;;;;;;4963854;28;20241;-50
2020/12/29 12:14:41;;;;;;;11.10;10.00;;;32.30;72.60;;;;;;4960069;28;20237;-52
2020/12/29 12:17:13;;;;;;;10.18;9.18;;;32.30;72.60;;;;;;4962003;28;20629;-50
2020/12/29 12:19:43;;;;;;;9.75;8.55;;;32.20;72.70;;;;;;4963684;28;20232;-51
2020/12/29 12:22:14;;;;;;;12.60;11.27;;;32.20;72.80;;;;;;4962229;28;20258;-53
2020/12/29 12:24:44;;;;;;;14.63;12.85;;;32.20;72.80;;;;;;4971783;28;20240;-54
2020/12/29 12:27:14;;;;;;;13.70;12.25;;;32.20;72.90;;;;;;4960805;28;20290;-52
2020/12/29 12:29:45;;;;;;;15.00;12.80;;;32.20;73.00;;;;;;4959132;28;20236;-54
2020/12/29 12:32:17;;;;;;;13.30;11.98;;;32.10;73.00;;;;;;4961739;28;20228;-53
2020/12/29 12:34:48;;;;;;;12.00;10.02;;;32.10;73.10;;;;;;4960811;28;20688;-52
2020/12/29 12:37:19;;;;;;;11.75;9.90;;;32.10;73.20;;;;;;4962928;28;20269;-55
2020/12/29 12:39:49;;;;;;;9.68;8.77;;;32.10;73.30;;;;;;4961930;28;20224;-54
2020/12/29 12:42:21;;;;;;;10.15;9.15;;;32.00;73.30;;;;;;4965325;28;20236;-50
2020/12/29 12:44:52;;;;;;;11.60;10.40;;;32.00;73.50;;;;;;4963601;28;20613;-52
2020/12/29 12:47:23;;;;;;;11.10;9.95;;;31.90;73.50;;;;;;4962796;28;20604;-54
2020/12/29 12:49:55;;;;;;;10.57;9.48;;;32.00;73.80;;;;;;4963848;28;20297;-51
2020/12/29 12:52:25;;;;;;;9.43;8.43;;;31.90;73.70;;;;;;4954913;28;20243;-54
2020/12/29 12:54:56;;;;;;;10.13;9.13;;;31.90;73.70;;;;;;4965280;28;20317;-51
2020/12/29 12:57:26;;;;;;;9.63;8.63;;;31.90;73.90;;;;;;4966718;28;20233;-50
2020/12/29 12:59:56;;;;;;;10.05;9.05;;;31.80;73.90;;;;;;4963781;28;20301;-50
2020/12/29 13:02:28;;;;;;;11.02;9.70;;;31.70;74.00;;;;;;4966432;28;20353;-50